首页
METAR-TAF:

METAR-TAF

机场 :

北九州機場

北九州, 日本

纬度: 33-50N, 经度: 130-57E, 海拔: 3米

当前天气观测

该预报发布于54分钟前的19:00 UTC
风速5节,风向东北
温度 24°C
湿度 94%
气压 1004 hPa
能见度10公里或以上

METAR: RJFR 231900Z AUTO 04005KT 9999 NSC 24/23 Q1004

时间: 04:54 (19:54 UTC)

预报

该预报发布于2小时和49分钟前的17:05 UTC
预报有效从23日的 18点(UTC)到 25日的 00点(UTC)
风速5节,风向西转西南
能见度10公里或以上
少量云层高于1000英尺
散云层高于2000英尺
多云层高于3000英尺
小阵雨
成为
从 24日的 00点(UTC)到 24日的 02点(UTC)
风速11节,风向东南
短暂存在
从 24日的 03点(UTC)到 24日的 09点(UTC)
能見度: 3000
少量云层高于300英尺
多云层高于800英尺
多云层高于1500英尺
阵雨, 轻雾
成为
从 24日的 09点(UTC)到 24日的 12点(UTC)
风速9节,风向西南
成为
从 24日的 21点(UTC)到 25日的 00点(UTC)
风速5节,风向西转西北

TAF: RJFR 231705Z 2318/2500 25005KT 9999 -SHRA FEW010 SCT020 BKN030 BECMG 2400/2402 13011KT TEMPO 2403/2409 3000 SHRA BR FEW003 BKN008 BKN015 BECMG 2409/2412 23009KT BECMG 2421/2500 29005KT

超过4000个机场的气象观测和天气预报(METAR&TAF报告)。

可查询的气象台以黄色和红色小点在地图上表示。

将鼠标移到小点上方,可查看气象台名称。

然后点击查看天气观测和预报。

如需切换地图:点击带黑十字的绿色按钮放大地图;点击带横线的绿色按钮缩小地图;或者点击绿色箭头查看邻近地区的地图。


METAR-TAF: